Time;durP1;ratioP1;P1;durP2;ratioP2;P2;SDS_P1;SDS_P2;PMS_P1;PMS_P2;Temp;Humidity;BMP_temperature;BMP_pressure;BME280_temperature;BME280_humidity;BME280_pressure;Samples;Min_cycle;Max_cycle;Signal;HPM_P1;HPM_P2
2022/08/12 00:42:52;;;;;;;2.35;2.15;;;;;;;14.85;100.00;96001.47;1021010;28;20034;-72
2022/08/12 00:43:23;;;;;;;5.80;2.22;;;;;;;14.77;100.00;95982.78;1013522;29;20031;-72
2022/08/12 00:43:53;;;;;;;4.03;2.15;;;;;;;14.84;100.00;96002.50;1020910;29;21368;-72
2022/08/12 00:44:26;;;;;;;7.50;2.13;;;;;;;14.83;100.00;96000.94;1021392;28;20027;-71
2022/08/12 00:44:57;;;;;;;3.72;2.28;;;;;;;14.83;100.00;96000.16;1019469;29;20138;-74
2022/08/12 00:46:29;;;;;;;4.53;2.45;;;;;;;14.82;100.00;96002.03;1018879;29;20055;-71
2022/08/12 00:46:30;;;;;;;2.83;2.03;;;;;;;14.83;100.00;96000.16;1018733;29;20038;-72
2022/08/12 00:47:01;;;;;;;4.05;2.20;;;;;;;14.68;100.00;95972.06;1022000;28;20031;-72
2022/08/12 00:47:32;;;;;;;4.82;2.17;;;;;;;14.76;100.00;95992.56;1029250;28;20114;-72
2022/08/12 00:48:03;;;;;;;4.78;2.50;;;;;;;14.81;100.00;95997.78;1022620;28;20110;-71
2022/08/12 00:48:33;;;;;;;5.75;2.20;;;;;;;14.82;100.00;95999.38;1019745;29;20024;-72
2022/08/12 00:49:04;;;;;;;2.95;2.00;;;;;;;14.83;100.00;95997.53;1024376;28;20113;-71
2022/08/12 00:49:35;;;;;;;3.58;2.33;;;;;;;14.80;100.00;95987.50;1021941;29;20520;-72
2022/08/12 00:50:07;;;;;;;4.78;2.20;;;;;;;14.83;100.00;96000.94;1022629;29;20115;-72
2022/08/12 00:50:38;;;;;;;3.30;2.20;;;;;;;14.75;100.00;95987.56;1016070;29;20100;-73
2022/08/12 00:51:08;;;;;;;2.53;2.00;;;;;;;14.82;100.00;95996.75;1020282;28;20114;-71
2022/08/12 00:52:28;;;;;;;3.38;2.25;;;;;;;14.81;100.00;95994.38;1029515;28;20137;-72
2022/08/12 00:53:01;;;;;;;2.50;2.00;;;;;;;14.82;100.00;95999.38;1030199;28;20026;-71
2022/08/12 00:53:32;;;;;;;3.70;2.22;;;;;;;14.82;100.00;95988.00;1026404;28;20516;-71
2022/08/12 00:54:05;;;;;;;2.50;2.20;;;;;;;14.79;100.00;95984.09;1029197;28;20033;-72
2022/08/12 00:54:45;;;;;;;3.03;2.05;;;;;;;14.82;100.00;95993.28;1022411;29;20031;-72
2022/08/12 00:55:17;;;;;;;2.63;2.28;;;;;;;14.78;100.00;95987.00;1018287;29;20109;-72
2022/08/12 00:55:47;;;;;;;4.53;2.80;;;;;;;14.79;100.00;95981.44;1021007;29;20482;-72
2022/08/12 00:56:17;;;;;;;4.50;2.50;;;;;;;14.79;100.00;95988.59;1022062;29;20019;-72
2022/08/12 00:56:49;;;;;;;5.55;2.70;;;;;;;14.79;100.00;95994.66;1014621;29;20116;-72
2022/08/12 00:57:26;;;;;;;6.10;2.80;;;;;;;14.78;100.00;95995.69;1016045;29;20451;-72
2022/08/12 00:57:57;;;;;;;4.00;2.25;;;;;;;14.78;100.00;95987.00;1022036;29;20023;-72
2022/08/12 00:58:28;;;;;;;2.67;2.40;;;;;;;14.78;100.00;95995.69;1019510;29;20028;-72
2022/08/12 00:58:59;;;;;;;6.22;2.67;;;;;;;14.75;100.00;95988.34;1023171;28;20039;-73
2022/08/12 00:59:30;;;;;;;2.45;2.17;;;;;;;14.70;100.00;95985.78;1030203;28;20035;-71
2022/08/12 01:00:07;;;;;;;3.80;2.38;;;;;;;14.78;100.00;95997.56;1022530;28;20023;-73
2022/08/12 01:00:37;;;;;;;2.78;2.33;;;;;;;14.78;100.00;96000.22;1022900;28;20027;-72
2022/08/12 01:01:08;;;;;;;5.32;2.50;;;;;;;14.73;100.00;95989.72;1025657;28;20027;-72
2022/08/12 01:01:39;;;;;;;4.50;2.50;;;;;;;14.76;100.00;95989.16;1026381;28;20038;-72
2022/08/12 01:02:12;;;;;;;3.53;2.30;;;;;;;14.78;100.00;96000.22;1026027;28;20019;-72
2022/08/12 01:02:45;;;;;;;3.22;2.50;;;;;;;14.76;100.00;95995.22;1021977;29;20023;-72
2022/08/12 01:03:18;;;;;;;3.15;2.40;;;;;;;14.77;100.00;95999.44;1018741;29;20020;-71
2022/08/12 01:11:30;;;;;;;5.22;2.25;;;;;;;14.69;100.00;96000.06;1029445;28;20092;-71
2022/08/12 01:12:01;;;;;;;5.28;2.35;;;;;;;14.60;100.00;95988.53;1021553;28;20433;-72
2022/08/12 01:12:31;;;;;;;4.05;2.13;;;;;;;14.66;100.00;95994.56;1022067;29;20030;-72
2022/08/12 01:13:01;;;;;;;3.33;2.40;;;;;;;14.65;100.00;95995.59;1022460;29;20509;-72
2022/08/12 01:13:34;;;;;;;5.45;2.35;;;;;;;14.57;100.00;95991.75;1018388;29;20039;-72
2022/08/12 01:14:04;;;;;;;5.05;2.47;;;;;;;14.56;100.00;95984.88;1020792;29;20027;-71
2022/08/12 01:14:34;;;;;;;2.80;2.33;;;;;;;14.63;100.00;95990.63;1026428;28;20019;-71
2022/08/12 01:15:05;;;;;;;3.13;2.13;;;;;;;14.64;100.00;95994.03;1019997;29;20051;-71
2022/08/12 01:15:36;;;;;;;3.03;2.17;;;;;;;14.61;100.00;95992.75;1019579;29;20023;-71
2022/08/12 01:16:07;;;;;;;9.43;3.03;;;;;;;14.53;100.00;95988.88;1018303;29;20023;-72
2022/08/12 01:16:37;;;;;;;3.05;2.25;;;;;;;14.58;100.00;95990.66;1026265;28;20049;-72
2022/08/12 01:17:08;;;;;;;4.68;2.28;;;;;;;14.61;100.00;95998.03;1027844;28;20085;-72
2022/08/12 01:17:43;;;;;;;3.53;2.45;;;;;;;14.57;100.00;95987.25;1028314;28;20030;-72
2022/08/12 01:18:13;;;;;;;6.32;2.40;;;;;;;14.55;100.00;95989.38;1023574;29;20030;-72
2022/08/12 01:18:44;;;;;;;3.42;2.50;;;;;;;14.57;100.00;95992.53;1023797;28;20023;-72
2022/08/12 01:19:14;;;;;;;4.07;2.63;;;;;;;14.52;100.00;95989.13;1023924;29;20039;-72
2022/08/12 01:19:47;;;;;;;6.07;2.45;;;;;;;14.58;100.00;95990.66;1019958;29;20425;-73
2022/08/12 01:20:40;;;;;;;6.85;2.40;;;;;;;14.57;100.00;95997.03;1019962;29;20024;-72
2022/08/12 01:21:34;;;;;;;4.10;2.38;;;;;;;14.55;100.00;95999.94;1023187;29;20019;-73
2022/08/12 01:22:17;;;;;;;5.05;2.67;;;;;;;14.55;100.00;95988.56;1032320;28;20113;-71
2022/08/12 01:23:14;;;;;;;4.15;2.42;;;;;;;14.50;100.00;95980.69;1027653;28;20038;-72
2022/08/12 01:24:06;;;;;;;6.15;2.80;;;;;;;14.58;100.00;95988.03;1026501;28;20028;-72
2022/08/12 01:24:42;;;;;;;4.57;2.63;;;;;;;14.56;100.00;95998.09;1024471;28;20186;-72
2022/08/12 01:25:17;;;;;;;3.88;2.42;;;;;;;14.56;100.00;95987.53;1018002;29;20023;-73
2022/08/12 01:25:47;;;;;;;7.93;3.08;;;;;;;14.54;100.00;95987.78;1022317;29;20062;-72
2022/08/12 01:26:24;;;;;;;4.55;2.70;;;;;;;14.55;100.00;95988.56;1018167;29;20027;-73
2022/08/12 01:26:55;;;;;;;3.85;2.50;;;;;;;14.49;100.00;95977.28;1014491;29;20027;-72
2022/08/12 01:27:26;;;;;;;5.70;2.97;;;;;;;14.53;100.00;95996.00;1022303;28;20047;-72
2022/08/12 01:27:56;;;;;;;8.10;2.45;;;;;;;14.53;100.00;95996.00;1018431;29;20052;-73
2022/08/12 01:28:27;;;;;;;8.95;2.63;;;;;;;14.52;100.00;95989.13;1022384;28;20393;-72
2022/08/12 01:28:58;;;;;;;14.48;3.45;;;;;;;14.52;100.00;95992.59;1015007;29;20028;-72
2022/08/12 01:29:30;;;;;;;10.02;2.83;;;;;;;14.44;100.00;95984.47;1018350;29;20023;-72
2022/08/12 01:30:03;;;;;;;4.50;2.50;;;;;;;14.49;100.00;95992.34;1018512;29;20035;-72
2022/08/12 01:30:33;;;;;;;5.03;2.50;;;;;;;14.51;100.00;95992.84;1010294;29;20025;-72
2022/08/12 01:31:04;;;;;;;2.67;2.47;;;;;;;14.44;100.00;95979.19;1014181;29;20028;-71
2022/08/12 01:31:36;;;;;;;10.38;2.65;;;;;;;14.49;100.00;95987.06;1026207;28;20018;-72
2022/08/12 01:32:07;;;;;;;2.70;2.17;;;;;;;14.50;100.00;95992.06;1026434;28;20049;-72
2022/08/12 01:32:38;;;;;;;8.52;2.53;;;;;;;14.48;100.00;95986.25;1026156;28;20014;-72
2022/08/12 01:33:12;;;;;;;2.58;2.38;;;;;;;14.41;100.00;95977.09;1021883;29;20015;-73
2022/08/12 01:34:02;;;;;;;5.38;2.67;;;;;;;14.47;100.00;95986.53;1018436;29;20039;-72
2022/08/12 01:34:38;;;;;;;9.35;2.83;;;;;;;14.49;100.00;95987.06;1026191;28;20022;-72
2022/08/12 01:35:09;;;;;;;4.32;2.40;;;;;;;14.49;100.00;95990.47;1022365;28;20496;-71
2022/08/12 01:35:40;;;;;;;2.40;2.15;;;;;;;14.49;100.00;95987.06;1018442;29;20027;-72
2022/08/12 01:36:10;;;;;;;2.97;2.15;;;;;;;14.42;100.00;95981.31;1026385;28;20019;-72
2022/08/12 01:36:44;;;;;;;4.75;2.30;;;;;;;14.46;100.00;95988.41;1026264;28;20073;-71
2022/08/12 01:37:19;;;;;;;3.13;2.63;;;;;;;14.43;100.00;95982.88;1026172;28;20022;-72
2022/08/12 01:37:59;;;;;;;3.38;2.30;;;;;;;14.42;100.00;95983.94;1021849;28;20049;-72
2022/08/12 01:38:32;;;;;;;6.43;2.60;;;;;;;14.35;100.00;95974.53;1014430;29;20111;-72
2022/08/12 01:39:02;;;;;;;2.22;2.00;;;;;;;14.26;100.00;95963.00;1022361;29;20397;-72
2022/08/12 01:39:51;;;;;;;3.65;2.63;;;;;;;14.41;100.00;95985.00;1022235;29;20024;-72
2022/08/12 01:40:24;;;;;;;3.70;2.65;;;;;;;14.39;100.00;95993.22;1018353;29;20023;-71
2022/08/12 01:40:55;;;;;;;16.67;3.38;;;;;;;14.39;100.00;95993.22;1020987;28;20024;-73
2022/08/12 01:41:29;;;;;;;4.30;2.80;;;;;;;14.31;100.00;95978.78;1017605;29;20019;-72
2022/08/12 01:42:24;;;;;;;4.68;2.95;;;;;;;14.35;100.00;95990.38;1026500;28;20010;-73
2022/08/12 01:43:00;;;;;;;6.18;2.50;;;;;;;14.36;100.00;95993.78;1015384;29;20028;-72
2022/08/12 01:43:31;;;;;;;5.50;2.53;;;;;;;14.27;100.00;95983.03;1026443;28;20078;-72
2022/08/12 01:44:04;;;;;;;5.25;2.35;;;;;;;14.36;100.00;95997.22;1022404;29;20495;-72
2022/08/12 01:44:35;;;;;;;6.10;2.60;;;;;;;14.31;100.00;95986.69;1019293;28;20031;-71
2022/08/12 01:45:06;;;;;;;3.08;2.28;;;;;;;14.36;100.00;95991.94;1022197;28;20015;-72
2022/08/12 01:45:40;;;;;;;5.32;3.08;;;;;;;14.35;100.00;95993.00;1018261;29;20110;-71
2022/08/12 01:46:28;;;;;;;3.20;2.40;;;;;;;14.28;100.00;95984.59;1022213;29;20035;-72
2022/08/12 01:47:09;;;;;;;3.35;2.35;;;;;;;14.34;100.00;95994.03;1022187;29;20586;-73
2022/08/12 01:48:02;;;;;;;5.90;2.67;;;;;;;14.26;100.00;95986.75;1014222;29;20617;-72
2022/08/12 01:48:38;;;;;;;4.43;2.55;;;;;;;14.32;100.00;95993.56;1014231;29;20425;-72
2022/08/12 01:49:39;;;;;;;3.88;2.47;;;;;;;14.32;100.00;95987.50;1014460;29;20043;-73
2022/08/12 01:50:35;;;;;;;4.28;2.58;;;;;;;14.31;100.00;95993.81;1020387;28;20445;-72
2022/08/12 01:51:20;;;;;;;4.47;2.30;;;;;;;14.29;100.00;95990.69;1026412;28;20085;-71
2022/08/12 01:51:55;;;;;;;10.18;2.97;;;;;;;14.29;100.00;95988.06;1030516;28;20066;-71
2022/08/12 01:52:26;;;;;;;4.32;2.80;;;;;;;14.27;100.00;95990.97;1026130;28;20030;-72
2022/08/12 01:53:07;;;;;;;5.55;2.40;;;;;;;14.26;100.00;95986.75;1024656;28;20030;-71
2022/08/12 01:54:03;;;;;;;2.55;2.20;;;;;;;14.21;100.00;95980.72;1018164;29;20030;-72
2022/08/12 01:54:39;;;;;;;4.57;2.60;;;;;;;14.15;100.00;95979.97;1021408;28;20050;-72
2022/08/12 01:55:10;;;;;;;3.92;2.25;;;;;;;14.24;100.00;95991.50;1022575;28;20059;-72
2022/08/12 01:55:42;;;;;;;9.35;2.50;;;;;;;14.24;100.00;95991.50;1026192;28;20053;-71
2022/08/12 01:56:13;;;;;;;3.95;2.65;;;;;;;14.22;100.00;95984.94;1026113;28;20098;-72
2022/08/12 01:56:50;;;;;;;5.05;2.30;;;;;;;14.22;100.00;95985.75;1022860;28;20019;-72
2022/08/12 01:57:43;;;;;;;5.13;2.60;;;;;;;14.21;100.00;95986.78;1022160;29;20308;-72
2022/08/12 01:59:45;;;;;;;5.28;2.17;;;;;;;14.18;100.00;95989.97;1018175;29;20092;-72
2022/08/12 01:59:58;;;;;;;5.43;2.67;;;;;;;14.17;100.00;95985.00;1030122;28;20062;-73
2022/08/12 02:00:47;;;;;;;3.95;2.42;;;;;;;14.09;100.00;95970.56;1034317;28;20699;-71
2022/08/12 02:01:19;;;;;;;4.60;2.22;;;;;;;14.14;100.00;95983.69;1029634;28;20031;-72
2022/08/12 02:01:49;;;;;;;8.18;2.47;;;;;;;14.07;100.00;95972.69;1026076;28;20031;-72
2022/08/12 02:02:32;;;;;;;4.72;2.53;;;;;;;14.12;100.00;95985.84;1022331;29;20027;-71
2022/08/12 02:03:24;;;;;;;8.05;2.42;;;;;;;14.10;100.00;95986.09;1022141;29;20380;-72
2022/08/12 02:11:21;;;;;;;6.47;2.67;;;;;;;13.97;100.00;95972.78;1025928;28;20031;-72
2022/08/12 02:11:59;;;;;;;3.92;2.67;;;;;;;14.00;100.00;95980.13;1025998;28;20030;-72
2022/08/12 02:12:57;;;;;;;6.40;2.88;;;;;;;13.98;100.00;95979.63;1023207;28;20043;-72
2022/08/12 02:13:49;;;;;;;5.78;2.63;;;;;;;13.97;100.00;95978.06;1023239;28;20038;-71
2022/08/12 02:14:38;;;;;;;6.90;3.17;;;;;;;13.95;100.00;95975.72;1030584;28;20988;-72
2022/08/12 02:15:34;;;;;;;4.70;2.28;;;;;;;13.99;100.00;95978.56;1032443;28;20510;-72
2022/08/12 02:16:26;;;;;;;2.83;2.40;;;;;;;13.96;100.00;95981.75;1028916;28;20084;-71
2022/08/12 02:17:34;;;;;;;7.57;2.35;;;;;;;13.93;100.00;95977.03;1024366;28;20029;-72
2022/08/12 02:18:53;;;;;;;4.05;2.55;;;;;;;13.87;100.00;95968.38;1024369;28;20686;-71
2022/08/12 02:19:33;;;;;;;4.63;2.63;;;;;;;13.89;100.00;95972.31;1033303;28;20760;-72
2022/08/12 02:20:20;;;;;;;2.50;2.25;;;;;;;13.88;100.00;95976.03;1023035;28;20465;-72
2022/08/12 02:21:11;;;;;;;4.97;2.63;;;;;;;13.86;100.00;95975.50;1014151;29;20102;-72
2022/08/12 02:22:36;;;;;;;3.53;2.65;;;;;;;13.83;100.00;95973.41;1015497;29;20114;-72
2022/08/12 02:23:07;;;;;;;2.50;2.30;;;;;;;13.79;100.00;95975.03;1020683;28;20134;-71
2022/08/12 02:23:37;;;;;;;4.18;2.60;;;;;;;13.81;100.00;95974.75;1021659;29;20019;-72
2022/08/12 02:24:09;;;;;;;7.07;2.40;;;;;;;13.79;100.00;95966.34;1015581;29;20506;-72
2022/08/12 02:24:41;;;;;;;5.63;2.63;;;;;;;13.80;100.00;95968.69;1017824;29;20043;-72
2022/08/12 02:25:25;;;;;;;3.05;2.72;;;;;;;13.79;100.00;95966.34;1012685;29;20176;-72
2022/08/12 02:26:03;;;;;;;3.00;2.30;;;;;;;13.78;100.00;95965.56;1015802;29;20035;-72
2022/08/12 02:26:33;;;;;;;7.53;2.80;;;;;;;13.77;100.00;95969.25;1029283;28;20026;-72
2022/08/12 02:27:07;;;;;;;7.40;2.67;;;;;;;13.77;100.00;95969.25;1025110;28;20022;-72
2022/08/12 02:27:46;;;;;;;6.18;2.97;;;;;;;13.75;100.00;95966.13;1021770;28;20844;-72
2022/08/12 02:28:16;;;;;;;4.93;3.03;;;;;;;13.75;100.00;95971.41;1024591;28;20182;-72
2022/08/12 02:28:47;;;;;;;7.78;3.15;;;;;;;13.72;100.00;95961.41;1029952;28;20026;-73
2022/08/12 02:29:18;;;;;;;12.52;2.40;;;;;;;13.74;100.00;95964.53;1019886;28;20045;-71
2022/08/12 02:29:49;;;;;;;3.80;2.70;;;;;;;13.73;100.00;95962.19;1024363;28;20602;-72
2022/08/12 02:30:22;;;;;;;4.50;2.55;;;;;;;13.74;100.00;95971.66;1017183;29;20039;-71
2022/08/12 02:30:53;;;;;;;4.95;2.85;;;;;;;13.73;100.00;95962.97;1023084;28;20751;-73
2022/08/12 02:31:23;;;;;;;4.20;2.67;;;;;;;13.72;100.00;95961.41;1025497;28;20105;-72
2022/08/12 02:31:54;;;;;;;3.45;2.75;;;;;;;13.72;100.00;95960.63;1023465;28;20023;-72
2022/08/12 02:32:24;;;;;;;6.05;2.78;;;;;;;13.65;100.00;95951.16;1018461;29;20507;-72
2022/08/12 02:32:55;;;;;;;4.95;2.83;;;;;;;13.70;100.00;95966.16;1018903;29;20039;-72
2022/08/12 02:33:25;;;;;;;4.97;2.80;;;;;;;13.67;100.00;95953.50;1030567;28;20026;-73
2022/08/12 02:33:57;;;;;;;8.32;2.78;;;;;;;13.70;100.00;95960.88;1026880;28;20488;-72
2022/08/12 02:34:28;;;;;;;3.33;2.28;;;;;;;13.61;100.00;95944.84;1018611;29;20031;-73
2022/08/12 02:35:00;;;;;;;2.88;2.58;;;;;;;13.68;100.00;95963.78;1021502;29;20430;-73
2022/08/12 02:35:34;;;;;;;4.78;2.70;;;;;;;13.64;100.00;95952.22;1026839;28;20030;-72
2022/08/12 02:36:05;;;;;;;7.65;2.63;;;;;;;13.68;100.00;95961.16;1032363;28;20096;-72
2022/08/12 02:36:36;;;;;;;3.78;2.55;;;;;;;13.70;100.00;95960.09;1033126;28;20061;-73
2022/08/12 02:37:07;;;;;;;4.43;2.63;;;;;;;13.69;100.00;95964.59;1034782;28;20032;-72
2022/08/12 02:37:38;;;;;;;7.10;2.40;;;;;;;13.65;100.00;95959.06;1028760;28;20148;-72
2022/08/12 02:38:09;;;;;;;4.63;2.55;;;;;;;13.65;100.00;95953.00;1022021;28;20130;-71
2022/08/12 02:38:41;;;;;;;3.80;2.58;;;;;;;13.67;100.00;95961.41;1024666;28;20023;-72
2022/08/12 02:39:14;;;;;;;3.40;2.50;;;;;;;13.62;100.00;95949.06;1017946;29;20023;-72
2022/08/12 02:39:47;;;;;;;6.43;2.60;;;;;;;13.63;100.00;95958.56;1019270;29;20023;-67
2022/08/12 02:40:18;;;;;;;3.78;2.70;;;;;;;13.59;100.00;95951.47;1024929;28;20039;-72
2022/08/12 02:40:51;;;;;;;3.85;2.40;;;;;;;13.58;100.00;95952.53;1025890;28;20046;-72
2022/08/12 02:41:21;;;;;;;3.17;2.42;;;;;;;13.64;100.00;95960.13;1025952;28;20026;-71
2022/08/12 02:41:53;;;;;;;6.25;2.85;;;;;;;13.63;100.00;95958.56;1012249;29;20016;-71
2022/08/12 02:42:23;;;;;;;8.13;2.80;;;;;;;13.63;100.00;95963.03;1019638;29;20086;-72
2022/08/12 02:42:58;;;;;;;5.32;2.67;;;;;;;13.62;100.00;95956.22;1022361;29;20047;-71
2022/08/12 02:43:36;;;;;;;2.60;2.40;;;;;;;13.59;100.00;95962.81;1019082;29;20028;-72
2022/08/12 02:44:08;;;;;;;2.65;2.45;;;;;;;13.59;100.00;95962.03;1020359;29;20110;-72
2022/08/12 02:44:39;;;;;;;4.00;2.20;;;;;;;13.59;100.00;95965.44;1018817;29;20032;-73
2022/08/12 02:45:09;;;;;;;7.70;2.65;;;;;;;13.56;100.00;95954.66;1022043;28;20027;-72
2022/08/12 02:46:08;;;;;;;3.60;2.85;;;;;;;13.57;100.00;95961.50;1019105;29;20492;-72
2022/08/12 02:46:38;;;;;;;6.28;2.65;;;;;;;13.55;100.00;95955.75;1015248;29;20032;-72
2022/08/12 02:47:11;;;;;;;8.63;2.90;;;;;;;13.56;100.00;95962.56;1029118;28;20006;-71
2022/08/12 02:47:41;;;;;;;6.75;2.55;;;;;;;13.56;100.00;95962.56;1026735;28;20019;-73
2022/08/12 02:48:20;;;;;;;5.50;2.58;;;;;;;13.57;100.00;95956.22;1030621;28;20002;-72
2022/08/12 02:48:52;;;;;;;9.70;3.35;;;;;;;13.56;100.00;95960.72;1022850;29;20106;-73
2022/08/12 02:49:28;;;;;;;5.80;2.83;;;;;;;13.50;100.00;95947.84;1028845;28;20015;-72
2022/08/12 02:49:59;;;;;;;3.80;2.50;;;;;;;13.57;100.00;95959.66;1026487;28;20579;-72
2022/08/12 02:50:30;;;;;;;6.88;2.58;;;;;;;13.49;100.00;95952.34;1022690;29;20015;-72
2022/08/12 02:51:04;;;;;;;4.00;2.83;;;;;;;13.50;100.00;95948.63;1014590;29;20020;-72
2022/08/12 02:51:38;;;;;;;4.53;2.47;;;;;;;13.56;100.00;95963.34;1014771;29;20024;-73
2022/08/12 02:52:08;;;;;;;4.82;3.03;;;;;;;13.49;100.00;95947.06;1020015;29;20024;-73
2022/08/12 02:52:38;;;;;;;5.55;2.60;;;;;;;13.51;100.00;95952.84;1018323;29;20089;-72
2022/08/12 02:53:12;;;;;;;4.75;2.40;;;;;;;13.53;100.00;95953.34;1014896;29;20027;-73
2022/08/12 02:53:43;;;;;;;3.65;2.60;;;;;;;13.56;100.00;95965.22;1017385;29;20047;-73
2022/08/12 02:54:14;;;;;;;4.82;2.60;;;;;;;13.56;100.00;95955.44;1020428;29;20509;-73
2022/08/12 02:54:48;;;;;;;3.47;2.80;;;;;;;13.56;100.00;95958.09;1022526;29;20007;-72
2022/08/12 02:55:20;;;;;;;6.85;3.53;;;;;;;13.55;100.00;95963.66;1016746;29;20409;-72
2022/08/12 02:55:50;;;;;;;3.83;2.58;;;;;;;13.52;100.00;95956.28;1014961;29;20016;-72
2022/08/12 02:56:21;;;;;;;5.95;2.80;;;;;;;13.55;100.00;95961.00;1016689;29;20106;-72
2022/08/12 02:56:51;;;;;;;3.38;2.40;;;;;;;13.55;100.00;95968.91;1023624;28;20016;-72
2022/08/12 02:57:22;;;;;;;5.38;2.88;;;;;;;13.54;100.00;95962.06;1030920;28;20021;-72
2022/08/12 02:57:53;;;;;;;7.53;2.58;;;;;;;13.54;100.00;95960.19;1025776;28;20022;-73
2022/08/12 02:58:24;;;;;;;5.97;2.78;;;;;;;13.52;100.00;95956.28;1023174;28;20586;-72
2022/08/12 02:58:55;;;;;;;4.18;3.10;;;;;;;13.54;100.00;95965.47;1026698;28;20537;-72
2022/08/12 02:59:25;;;;;;;7.63;2.78;;;;;;;13.55;100.00;95966.28;1031193;28;20019;-71
2022/08/12 02:59:56;;;;;;;3.10;2.40;;;;;;;13.55;100.00;95961.78;1022644;28;20048;-72
2022/08/12 03:00:27;;;;;;;4.95;3.05;;;;;;;13.54;100.00;95960.19;1023431;28;20016;-72
2022/08/12 03:01:00;;;;;;;4.60;2.92;;;;;;;13.54;100.00;95959.41;1027143;28;20011;-72
2022/08/12 03:01:34;;;;;;;4.13;2.85;;;;;;;13.53;100.00;95963.91;1023813;28;20095;-72
2022/08/12 03:02:05;;;;;;;3.33;2.28;;;;;;;13.54;100.00;95960.19;1023457;28;20025;-72
2022/08/12 03:02:37;;;;;;;3.95;2.33;;;;;;;13.50;100.00;95956.53;1019678;29;20591;-72
2022/08/12 03:03:08;;;;;;;2.72;2.53;;;;;;;13.52;100.00;95970.25;1015559;29;20019;-72
2022/08/12 03:03:39;;;;;;;3.10;2.80;;;;;;;13.55;100.00;95961.00;1017255;29;20024;-72
2022/08/12 03:04:12;;;;;;;3.47;2.40;;;;;;;13.53;100.00;95958.63;1022446;29;20015;-72
2022/08/12 03:04:46;;;;;;;5.10;2.58;;;;;;;13.54;100.00;95959.41;1021565;28;20031;-72
2022/08/12 03:05:17;;;;;;;3.17;2.88;;;;;;;13.54;100.00;95962.06;1023867;28;20085;-73
2022/08/12 03:05:59;;;;;;;7.13;2.80;;;;;;;13.53;100.00;95966.53;1024480;28;20537;-72
2022/08/12 03:06:38;;;;;;;3.70;2.50;;;;;;;13.52;100.00;95967.63;1029545;28;20019;-73
2022/08/12 03:07:13;;;;;;;6.22;3.03;;;;;;;13.51;100.00;95967.88;1029181;28;20402;-71
2022/08/12 03:07:46;;;;;;;7.05;2.80;;;;;;;13.42;100.00;95957.94;1035723;28;20026;-72
2022/08/12 03:08:19;;;;;;;10.57;3.50;;;;;;;13.40;100.00;95961.88;1029002;28;20026;-72
2022/08/12 03:08:49;;;;;;;7.32;2.60;;;;;;;13.46;100.00;95970.56;1024913;28;20026;-73
2022/08/12 03:09:20;;;;;;;4.10;2.85;;;;;;;13.40;100.00;95960.03;1035454;28;20026;-73
2022/08/12 03:09:54;;;;;;;3.03;2.70;;;;;;;13.42;100.00;95965.84;1030263;28;20017;-72
2022/08/12 03:10:25;;;;;;;4.43;2.67;;;;;;;13.41;100.00;95960.81;1027842;28;20022;-72
2022/08/12 03:11:09;;;;;;;4.00;2.70;;;;;;;13.39;100.00;95969.00;1027766;28;20161;-71
2022/08/12 03:11:49;;;;;;;5.82;2.75;;;;;;;13.40;100.00;95969.81;1025198;28;20033;-73
2022/08/12 03:12:19;;;;;;;6.60;2.90;;;;;;;13.35;100.00;95968.00;1031555;28;20027;-72
2022/08/12 03:12:52;;;;;;;4.10;2.88;;;;;;;13.38;100.00;95966.63;1023707;29;20031;-73
2022/08/12 03:13:25;;;;;;;6.85;3.55;;;;;;;13.37;100.00;95968.50;1023580;29;20012;-72
2022/08/12 03:13:59;;;;;;;10.93;3.42;;;;;;;13.33;100.00;95964.84;1020851;29;20016;-71
2022/08/12 03:14:31;;;;;;;23.45;4.13;;;;;;;13.35;100.00;95969.84;1015652;29;20035;-73
2022/08/12 03:15:08;;;;;;;9.45;3.50;;;;;;;13.32;100.00;95965.91;1021766;29;20016;-72
2022/08/12 03:15:42;;;;;;;12.02;3.58;;;;;;;13.26;100.00;95959.09;1029858;28;20019;-72
2022/08/12 03:16:13;;;;;;;10.98;3.72;;;;;;;13.24;100.00;95958.56;1029273;28;20031;-73
2022/08/12 03:16:49;;;;;;;10.23;3.22;;;;;;;13.23;100.00;95951.69;1025419;28;20025;-72
2022/08/12 03:17:28;;;;;;;7.55;3.17;;;;;;;13.27;100.00;95962.50;1020879;29;20075;-72
2022/08/12 03:18:14;;;;;;;4.40;3.00;;;;;;;13.25;100.00;95970.69;1023787;29;20490;-72
2022/08/12 03:18:45;;;;;;;3.13;2.50;;;;;;;13.24;100.00;95969.09;1019437;29;20027;-73
2022/08/12 03:19:19;;;;;;;7.63;3.40;;;;;;;13.24;100.00;95970.94;1023633;29;20129;-72
2022/08/12 03:19:52;;;;;;;5.47;3.20;;;;;;;13.24;100.00;95965.66;1011820;29;20115;-73
2022/08/12 03:20:23;;;;;;;3.75;2.83;;;;;;;13.22;100.00;95963.31;1019634;29;20111;-72
2022/08/12 03:20:53;;;;;;;3.60;2.80;;;;;;;13.23;100.00;95966.72;1019622;29;20031;-72
2022/08/12 03:21:24;;;;;;;6.35;2.55;;;;;;;13.22;100.00;95965.94;1019345;29;20526;-73
2022/08/12 03:21:54;;;;;;;5.80;3.15;;;;;;;13.23;100.00;95967.50;1015898;29;20031;-72
2022/08/12 03:22:25;;;;;;;4.55;3.10;;;;;;;13.22;100.00;95963.31;1024694;28;20070;-73
2022/08/12 03:22:55;;;;;;;4.57;2.67;;;;;;;13.23;100.00;95967.50;1019568;29;20078;-74
2022/08/12 03:23:27;;;;;;;6.18;2.90;;;;;;;13.22;100.00;95963.31;1019724;29;20516;-72
2022/08/12 03:23:57;;;;;;;5.40;2.85;;;;;;;13.08;100.00;95936.78;1025064;28;20042;-72
2022/08/12 03:24:28;;;;;;;3.85;3.10;;;;;;;13.21;100.00;95959.88;1035744;28;20570;-73
2022/08/12 03:25:03;;;;;;;3.38;2.38;;;;;;;13.21;100.00;95957.25;1019673;29;20024;-73
2022/08/12 03:25:35;;;;;;;4.65;2.88;;;;;;;13.21;100.00;95959.06;1019637;29;20091;-71
2022/08/12 03:26:06;;;;;;;6.35;3.25;;;;;;;13.19;100.00;95953.31;1023730;29;20015;-72
2022/08/12 03:26:36;;;;;;;8.85;2.92;;;;;;;13.20;100.00;95960.94;1027573;28;20015;-72
2022/08/12 03:27:07;;;;;;;5.03;2.97;;;;;;;13.14;100.00;95950.69;1023534;29;20023;-72
2022/08/12 03:27:50;;;;;;;4.28;2.70;;;;;;;13.19;100.00;95967.28;1015481;29;20036;-72
2022/08/12 03:29:11;;;;;;;3.35;2.63;;;;;;;13.17;100.00;95963.31;1019683;28;20445;-72
2022/08/12 03:29:46;;;;;;;15.70;3.55;;;;;;;13.14;100.00;95956.75;1027843;28;20401;-73
2022/08/12 03:30:17;;;;;;;5.13;3.10;;;;;;;13.16;100.00;95959.91;1027804;28;20033;-72
2022/08/12 03:30:50;;;;;;;4.53;2.83;;;;;;;13.16;100.00;95964.41;1015579;29;20024;-72
2022/08/12 03:31:28;;;;;;;6.20;2.50;;;;;;;13.10;100.00;95954.94;1011028;29;20032;-72
2022/08/12 03:31:59;;;;;;;6.55;2.80;;;;;;;13.15;100.00;95968.09;1015730;29;20122;-72
2022/08/12 03:32:30;;;;;;;7.22;3.20;;;;;;;13.11;100.00;95957.31;1023930;28;20192;-72
2022/08/12 03:33:01;;;;;;;5.50;3.03;;;;;;;13.07;100.00;95951.00;1022763;29;20038;-72
2022/08/12 03:33:38;;;;;;;4.68;3.22;;;;;;;13.09;100.00;95953.38;1011617;29;20690;-72
2022/08/12 03:34:11;;;;;;;4.07;2.45;;;;;;;13.12;100.00;95960.75;1011740;29;21214;-72
2022/08/12 03:34:42;;;;;;;4.20;2.85;;;;;;;13.11;100.00;95964.41;1018807;29;20032;-72
2022/08/12 03:35:12;;;;;;;3.35;2.97;;;;;;;13.08;100.00;95960.50;1022645;29;20073;-71
2022/08/12 03:35:46;;;;;;;6.75;3.10;;;;;;;13.05;100.00;95952.34;1023717;28;20511;-71
2022/08/12 03:36:18;;;;;;;6.13;3.35;;;;;;;13.05;100.00;95952.34;1025993;28;20547;-72
2022/08/12 03:36:49;;;;;;;10.85;3.60;;;;;;;13.09;100.00;95959.44;1021968;29;20023;-73
2022/08/12 03:37:19;;;;;;;17.35;3.95;;;;;;;13.09;100.00;95963.91;1018705;29;20020;-72
2022/08/12 03:37:50;;;;;;;4.30;3.15;;;;;;;13.09;100.00;95961.28;1026573;28;20023;-72
2022/08/12 03:38:20;;;;;;;13.20;4.00;;;;;;;13.04;100.00;95956.03;1022767;28;20842;-72
2022/08/12 03:39:42;;;;;;;7.88;3.35;;;;;;;13.04;100.00;95964.72;1026690;28;20945;-73
2022/08/12 03:41:33;;;;;;;8.52;3.63;;;;;;;12.96;100.00;95944.22;1022821;28;20038;-72
2022/08/12 03:42:17;;;;;;;3.30;2.78;;;;;;;12.95;100.00;95959.25;1025825;28;20064;-72
2022/08/12 04:00:38;;;;;;;10.27;3.17;;;;;;;12.72;100.00;95944.09;1029383;28;20622;-73
2022/08/12 04:01:08;;;;;;;16.20;3.60;;;;;;;12.75;100.00;95956.72;1026032;28;20066;-73
2022/08/12 04:01:39;;;;;;;3.28;2.70;;;;;;;12.67;100.00;95944.88;1022406;29;20055;-74
2022/08/12 04:02:13;;;;;;;17.92;3.80;;;;;;;12.73;100.00;95948.28;1025366;28;20023;-73
2022/08/12 04:02:45;;;;;;;23.55;4.30;;;;;;;12.72;100.00;95955.41;1023130;28;20089;-74